sensor_id;sensor_type;location;lat;lon;timestamp;P1;durP1;ratioP1;P2;durP2;ratioP2
673;SDS011;319;48.764;9.174;2023-06-19T00:00:30;2.23;;;2.23;;
673;SDS011;319;48.764;9.174;2023-06-19T00:02:57;2.30;;;2.30;;
673;SDS011;319;48.764;9.174;2023-06-19T00:05:24;1.60;;;1.60;;
673;SDS011;319;48.764;9.174;2023-06-19T00:07:53;7.60;;;7.40;;
673;SDS011;319;48.764;9.174;2023-06-19T00:10:19;7.80;;;7.60;;
673;SDS011;319;48.764;9.174;2023-06-19T00:12:47;7.60;;;7.40;;
673;SDS011;319;48.764;9.174;2023-06-19T00:15:14;7.50;;;7.30;;
673;SDS011;319;48.764;9.174;2023-06-19T00:17:41;7.50;;;7.30;;
673;SDS011;319;48.764;9.174;2023-06-19T00:20:08;7.90;;;7.70;;
673;SDS011;319;48.764;9.174;2023-06-19T00:22:35;5.90;;;5.80;;
673;SDS011;319;48.764;9.174;2023-06-19T00:25:03;7.70;;;7.50;;
673;SDS011;319;48.764;9.174;2023-06-19T00:27:30;8.10;;;7.90;;
673;SDS011;319;48.764;9.174;2023-06-19T00:29:57;7.73;;;7.53;;
673;SDS011;319;48.764;9.174;2023-06-19T00:32:27;7.93;;;7.73;;
673;SDS011;319;48.764;9.174;2023-06-19T00:34:54;7.90;;;7.70;;
673;SDS011;319;48.764;9.174;2023-06-19T00:37:21;6.90;;;6.70;;
673;SDS011;319;48.764;9.174;2023-06-19T00:39:48;8.10;;;7.90;;
673;SDS011;319;48.764;9.174;2023-06-19T00:42:16;6.07;;;5.97;;
673;SDS011;319;48.764;9.174;2023-06-19T00:44:43;7.10;;;6.90;;
673;SDS011;319;48.764;9.174;2023-06-19T00:47:10;7.63;;;7.43;;
673;SDS011;319;48.764;9.174;2023-06-19T00:49:37;7.80;;;7.60;;
673;SDS011;319;48.764;9.174;2023-06-19T00:52:04;7.40;;;7.20;;
673;SDS011;319;48.764;9.174;2023-06-19T00:54:33;8.70;;;8.50;;
673;SDS011;319;48.764;9.174;2023-06-19T00:57:00;8.10;;;7.90;;
673;SDS011;319;48.764;9.174;2023-06-19T00:59:30;8.10;;;7.90;;
673;SDS011;319;48.764;9.174;2023-06-19T01:01:57;8.50;;;8.30;;
673;SDS011;319;48.764;9.174;2023-06-19T01:04:24;7.70;;;7.50;;
673;SDS011;319;48.764;9.174;2023-06-19T01:06:53;7.50;;;7.30;;
673;SDS011;319;48.764;9.174;2023-06-19T01:09:24;7.40;;;7.20;;
673;SDS011;319;48.764;9.174;2023-06-19T01:11:55;0.80;;;0.80;;
673;SDS011;319;48.764;9.174;2023-06-19T01:14:30;1.50;;;1.50;;
673;SDS011;319;48.764;9.174;2023-06-19T01:17:02;0.70;;;0.70;;
673;SDS011;319;48.764;9.174;2023-06-19T01:19:29;0.70;;;0.70;;
673;SDS011;319;48.764;9.174;2023-06-19T01:24:27;4.37;;;4.27;;
673;SDS011;319;48.764;9.174;2023-06-19T01:26:54;7.77;;;7.57;;
673;SDS011;319;48.764;9.174;2023-06-19T01:29:21;7.03;;;6.83;;
673;SDS011;319;48.764;9.174;2023-06-19T01:31:50;0.70;;;0.70;;
673;SDS011;319;48.764;9.174;2023-06-19T01:34:22;0.80;;;0.80;;
673;SDS011;319;48.764;9.174;2023-06-19T01:36:53;0.80;;;0.80;;
673;SDS011;319;48.764;9.174;2023-06-19T01:39:23;0.90;;;0.90;;
673;SDS011;319;48.764;9.174;2023-06-19T01:41:51;5.97;;;5.87;;
673;SDS011;319;48.764;9.174;2023-06-19T01:44:19;1.23;;;1.23;;
673;SDS011;319;48.764;9.174;2023-06-19T01:46:47;0.70;;;0.70;;
673;SDS011;319;48.764;9.174;2023-06-19T01:49:14;1.53;;;1.53;;
673;SDS011;319;48.764;9.174;2023-06-19T01:51:41;6.70;;;6.50;;
673;SDS011;319;48.764;9.174;2023-06-19T01:54:08;0.80;;;0.80;;
673;SDS011;319;48.764;9.174;2023-06-19T01:56:36;0.80;;;0.80;;
673;SDS011;319;48.764;9.174;2023-06-19T01:59:04;0.83;;;0.83;;
673;SDS011;319;48.764;9.174;2023-06-19T02:01:30;0.70;;;0.70;;
673;SDS011;319;48.764;9.174;2023-06-19T02:03:57;8.40;;;8.20;;
673;SDS011;319;48.764;9.174;2023-06-19T02:06:24;4.47;;;4.37;;
673;SDS011;319;48.764;9.174;2023-06-19T02:08:51;3.10;;;3.00;;
673;SDS011;319;48.764;9.174;2023-06-19T02:11:18;8.27;;;8.07;;
673;SDS011;319;48.764;9.174;2023-06-19T02:13:46;6.67;;;6.47;;
673;SDS011;319;48.764;9.174;2023-06-19T02:16:13;8.00;;;7.80;;
673;SDS011;319;48.764;9.174;2023-06-19T02:18:40;7.73;;;7.53;;
673;SDS011;319;48.764;9.174;2023-06-19T02:21:07;0.80;;;0.80;;
673;SDS011;319;48.764;9.174;2023-06-19T02:23:34;4.77;;;4.67;;
673;SDS011;319;48.764;9.174;2023-06-19T02:26:01;7.80;;;7.60;;
673;SDS011;319;48.764;9.174;2023-06-19T02:28:28;0.80;;;0.80;;
673;SDS011;319;48.764;9.174;2023-06-19T02:30:56;0.80;;;0.80;;
673;SDS011;319;48.764;9.174;2023-06-19T02:33:23;8.33;;;8.13;;
673;SDS011;319;48.764;9.174;2023-06-19T02:35:50;9.47;;;9.27;;
673;SDS011;319;48.764;9.174;2023-06-19T02:38:17;9.00;;;8.80;;
673;SDS011;319;48.764;9.174;2023-06-19T02:40:46;10.30;;;10.00;;
673;SDS011;319;48.764;9.174;2023-06-19T02:43:13;7.53;;;7.33;;
673;SDS011;319;48.764;9.174;2023-06-19T02:45:40;6.40;;;6.20;;
673;SDS011;319;48.764;9.174;2023-06-19T02:48:09;3.20;;;3.10;;
673;SDS011;319;48.764;9.174;2023-06-19T02:50:36;8.80;;;8.60;;
673;SDS011;319;48.764;9.174;2023-06-19T02:53:02;5.30;;;5.20;;
673;SDS011;319;48.764;9.174;2023-06-19T02:55:29;6.90;;;6.70;;
673;SDS011;319;48.764;9.174;2023-06-19T02:57:56;5.50;;;5.40;;
673;SDS011;319;48.764;9.174;2023-06-19T03:00:23;3.77;;;3.67;;
673;SDS011;319;48.764;9.174;2023-06-19T03:02:52;6.67;;;6.47;;
673;SDS011;319;48.764;9.174;2023-06-19T03:05:20;8.30;;;8.10;;
673;SDS011;319;48.764;9.174;2023-06-19T03:07:47;7.30;;;7.10;;
673;SDS011;319;48.764;9.174;2023-06-19T03:10:14;7.47;;;7.27;;
673;SDS011;319;48.764;9.174;2023-06-19T03:12:41;8.17;;;7.97;;
673;SDS011;319;48.764;9.174;2023-06-19T03:15:08;7.73;;;7.53;;
673;SDS011;319;48.764;9.174;2023-06-19T03:17:36;12.00;;;11.70;;
673;SDS011;319;48.764;9.174;2023-06-19T03:20:03;4.07;;;3.97;;
673;SDS011;319;48.764;9.174;2023-06-19T03:22:32;8.17;;;7.97;;
673;SDS011;319;48.764;9.174;2023-06-19T03:24:59;6.63;;;6.43;;
673;SDS011;319;48.764;9.174;2023-06-19T03:27:26;7.30;;;7.10;;
673;SDS011;319;48.764;9.174;2023-06-19T03:29:54;7.33;;;7.13;;
673;SDS011;319;48.764;9.174;2023-06-19T03:32:21;9.40;;;9.20;;
673;SDS011;319;48.764;9.174;2023-06-19T03:34:48;5.63;;;5.53;;
673;SDS011;319;48.764;9.174;2023-06-19T03:37:15;4.37;;;4.27;;
673;SDS011;319;48.764;9.174;2023-06-19T03:39:43;7.90;;;7.70;;
673;SDS011;319;48.764;9.174;2023-06-19T03:42:10;7.40;;;7.20;;
673;SDS011;319;48.764;9.174;2023-06-19T03:44:37;8.83;;;8.63;;
673;SDS011;319;48.764;9.174;2023-06-19T03:47:05;2.03;;;2.03;;
673;SDS011;319;48.764;9.174;2023-06-19T03:49:33;1.30;;;1.30;;
673;SDS011;319;48.764;9.174;2023-06-19T03:52:00;1.43;;;1.43;;
673;SDS011;319;48.764;9.174;2023-06-19T03:54:26;0.80;;;0.80;;
673;SDS011;319;48.764;9.174;2023-06-19T03:56:55;0.80;;;0.80;;
673;SDS011;319;48.764;9.174;2023-06-19T03:59:21;0.70;;;0.70;;
673;SDS011;319;48.764;9.174;2023-06-19T04:01:48;0.80;;;0.80;;
673;SDS011;319;48.764;9.174;2023-06-19T04:04:15;0.70;;;0.70;;
673;SDS011;319;48.764;9.174;2023-06-19T04:06:42;0.70;;;0.70;;
673;SDS011;319;48.764;9.174;2023-06-19T04:09:09;0.70;;;0.70;;
673;SDS011;319;48.764;9.174;2023-06-19T04:11:36;0.70;;;0.70;;
673;SDS011;319;48.764;9.174;2023-06-19T04:14:04;7.80;;;7.60;;
673;SDS011;319;48.764;9.174;2023-06-19T04:16:31;6.40;;;6.20;;
673;SDS011;319;48.764;9.174;2023-06-19T04:18:58;3.00;;;2.90;;
673;SDS011;319;48.764;9.174;2023-06-19T04:21:25;8.90;;;8.70;;
673;SDS011;319;48.764;9.174;2023-06-19T04:23:52;8.67;;;8.47;;
673;SDS011;319;48.764;9.174;2023-06-19T04:26:19;8.03;;;7.83;;
673;SDS011;319;48.764;9.174;2023-06-19T04:28:47;10.50;;;10.20;;
673;SDS011;319;48.764;9.174;2023-06-19T04:31:15;9.63;;;9.43;;
673;SDS011;319;48.764;9.174;2023-06-19T04:33:43;9.40;;;9.20;;
673;SDS011;319;48.764;9.174;2023-06-19T04:36:11;10.10;;;9.80;;
673;SDS011;319;48.764;9.174;2023-06-19T04:38:37;10.37;;;10.07;;
673;SDS011;319;48.764;9.174;2023-06-19T04:41:04;8.70;;;8.50;;
673;SDS011;319;48.764;9.174;2023-06-19T04:43:31;7.10;;;6.90;;
673;SDS011;319;48.764;9.174;2023-06-19T04:45:59;9.50;;;9.30;;
673;SDS011;319;48.764;9.174;2023-06-19T04:48:30;5.60;;;5.50;;
673;SDS011;319;48.764;9.174;2023-06-19T04:50:57;4.00;;;3.90;;
673;SDS011;319;48.764;9.174;2023-06-19T04:53:26;3.33;;;3.23;;
673;SDS011;319;48.764;9.174;2023-06-19T04:55:53;8.60;;;8.40;;
673;SDS011;319;48.764;9.174;2023-06-19T04:58:20;9.10;;;8.90;;
673;SDS011;319;48.764;9.174;2023-06-19T05:00:47;3.30;;;3.20;;
673;SDS011;319;48.764;9.174;2023-06-19T05:03:16;7.20;;;7.00;;
673;SDS011;319;48.764;9.174;2023-06-19T05:05:45;8.87;;;8.67;;
673;SDS011;319;48.764;9.174;2023-06-19T05:08:12;8.80;;;8.60;;
673;SDS011;319;48.764;9.174;2023-06-19T05:10:39;7.70;;;7.50;;
673;SDS011;319;48.764;9.174;2023-06-19T05:13:06;10.00;;;9.70;;
673;SDS011;319;48.764;9.174;2023-06-19T05:15:33;9.00;;;8.80;;
673;SDS011;319;48.764;9.174;2023-06-19T05:18:00;5.13;;;5.03;;
673;SDS011;319;48.764;9.174;2023-06-19T05:20:26;6.90;;;6.70;;
673;SDS011;319;48.764;9.174;2023-06-19T05:22:55;10.60;;;10.30;;
673;SDS011;319;48.764;9.174;2023-06-19T05:25:22;8.47;;;8.27;;
673;SDS011;319;48.764;9.174;2023-06-19T05:27:48;9.43;;;9.23;;
673;SDS011;319;48.764;9.174;2023-06-19T05:30:15;8.60;;;8.40;;
673;SDS011;319;48.764;9.174;2023-06-19T05:32:42;7.07;;;6.87;;
673;SDS011;319;48.764;9.174;2023-06-19T05:35:09;12.10;;;11.80;;
673;SDS011;319;48.764;9.174;2023-06-19T05:37:36;8.43;;;8.23;;
673;SDS011;319;48.764;9.174;2023-06-19T05:40:06;11.30;;;11.00;;
673;SDS011;319;48.764;9.174;2023-06-19T05:42:34;10.00;;;9.70;;
673;SDS011;319;48.764;9.174;2023-06-19T05:45:01;7.77;;;7.57;;
673;SDS011;319;48.764;9.174;2023-06-19T05:47:29;10.57;;;10.27;;
673;SDS011;319;48.764;9.174;2023-06-19T05:49:56;7.03;;;6.83;;
673;SDS011;319;48.764;9.174;2023-06-19T05:52:23;10.80;;;10.50;;
673;SDS011;319;48.764;9.174;2023-06-19T05:54:50;9.60;;;9.40;;
673;SDS011;319;48.764;9.174;2023-06-19T05:57:20;8.80;;;8.60;;
673;SDS011;319;48.764;9.174;2023-06-19T05:59:47;7.80;;;7.60;;
673;SDS011;319;48.764;9.174;2023-06-19T06:02:14;9.37;;;9.17;;
673;SDS011;319;48.764;9.174;2023-06-19T06:04:41;10.33;;;10.03;;
673;SDS011;319;48.764;9.174;2023-06-19T06:07:08;1.40;;;1.40;;
673;SDS011;319;48.764;9.174;2023-06-19T06:09:35;0.97;;;0.97;;
673;SDS011;319;48.764;9.174;2023-06-19T06:12:02;6.90;;;6.70;;
673;SDS011;319;48.764;9.174;2023-06-19T06:14:33;8.70;;;8.50;;
673;SDS011;319;48.764;9.174;2023-06-19T06:17:01;9.60;;;9.40;;
673;SDS011;319;48.764;9.174;2023-06-19T06:19:30;10.60;;;10.30;;
673;SDS011;319;48.764;9.174;2023-06-19T06:21:57;7.53;;;7.33;;
673;SDS011;319;48.764;9.174;2023-06-19T06:24:24;7.60;;;7.40;;
673;SDS011;319;48.764;9.174;2023-06-19T06:26:50;8.37;;;8.17;;
673;SDS011;319;48.764;9.174;2023-06-19T06:29:17;11.20;;;10.90;;
673;SDS011;319;48.764;9.174;2023-06-19T06:31:46;5.40;;;5.30;;
673;SDS011;319;48.764;9.174;2023-06-19T06:34:13;14.80;;;14.40;;
673;SDS011;319;48.764;9.174;2023-06-19T06:36:40;1.33;;;1.33;;
673;SDS011;319;48.764;9.174;2023-06-19T06:39:07;0.93;;;0.93;;
673;SDS011;319;48.764;9.174;2023-06-19T06:41:34;3.37;;;3.27;;
673;SDS011;319;48.764;9.174;2023-06-19T06:44:01;1.10;;;1.10;;
673;SDS011;319;48.764;9.174;2023-06-19T06:46:29;0.70;;;0.70;;
673;SDS011;319;48.764;9.174;2023-06-19T06:48:57;0.80;;;0.80;;
673;SDS011;319;48.764;9.174;2023-06-19T06:51:24;0.80;;;0.80;;
673;SDS011;319;48.764;9.174;2023-06-19T06:53:51;0.80;;;0.80;;
673;SDS011;319;48.764;9.174;2023-06-19T06:56:18;0.70;;;0.70;;
673;SDS011;319;48.764;9.174;2023-06-19T06:58:44;1.40;;;1.40;;
673;SDS011;319;48.764;9.174;2023-06-19T07:01:12;7.13;;;6.93;;
673;SDS011;319;48.764;9.174;2023-06-19T07:03:39;0.67;;;0.67;;
673;SDS011;319;48.764;9.174;2023-06-19T07:06:12;0.90;;;0.90;;
673;SDS011;319;48.764;9.174;2023-06-19T07:08:39;0.70;;;0.70;;
673;SDS011;319;48.764;9.174;2023-06-19T07:11:06;0.70;;;0.70;;
673;SDS011;319;48.764;9.174;2023-06-19T07:13:36;3.70;;;3.60;;
673;SDS011;319;48.764;9.174;2023-06-19T07:16:06;8.23;;;8.03;;
673;SDS011;319;48.764;9.174;2023-06-19T07:18:33;12.20;;;11.90;;
673;SDS011;319;48.764;9.174;2023-06-19T07:21:02;9.40;;;9.20;;
673;SDS011;319;48.764;9.174;2023-06-19T07:23:36;12.53;;;12.23;;
673;SDS011;319;48.764;9.174;2023-06-19T07:26:03;13.23;;;12.83;;
673;SDS011;319;48.764;9.174;2023-06-19T07:28:30;4.40;;;4.30;;
673;SDS011;319;48.764;9.174;2023-06-19T07:30:57;3.43;;;3.33;;
673;SDS011;319;48.764;9.174;2023-06-19T07:33:24;0.83;;;0.83;;
673;SDS011;319;48.764;9.174;2023-06-19T07:35:51;1.00;;;1.00;;
673;SDS011;319;48.764;9.174;2023-06-19T07:38:18;0.70;;;0.70;;
673;SDS011;319;48.764;9.174;2023-06-19T07:40:46;0.70;;;0.70;;
673;SDS011;319;48.764;9.174;2023-06-19T07:43:13;0.70;;;0.70;;
673;SDS011;319;48.764;9.174;2023-06-19T07:45:40;0.70;;;0.70;;
673;SDS011;319;48.764;9.174;2023-06-19T07:48:07;0.77;;;0.77;;
673;SDS011;319;48.764;9.174;2023-06-19T07:50:36;0.70;;;0.70;;
673;SDS011;319;48.764;9.174;2023-06-19T07:53:02;0.70;;;0.70;;
673;SDS011;319;48.764;9.174;2023-06-19T07:55:31;1.70;;;1.70;;
673;SDS011;319;48.764;9.174;2023-06-19T07:58:01;0.80;;;0.80;;
673;SDS011;319;48.764;9.174;2023-06-19T08:00:28;0.80;;;0.80;;
673;SDS011;319;48.764;9.174;2023-06-19T08:02:55;0.70;;;0.70;;
673;SDS011;319;48.764;9.174;2023-06-19T08:05:22;0.70;;;0.70;;
673;SDS011;319;48.764;9.174;2023-06-19T08:07:49;0.70;;;0.70;;
673;SDS011;319;48.764;9.174;2023-06-19T08:10:16;0.70;;;0.70;;
673;SDS011;319;48.764;9.174;2023-06-19T08:12:43;0.70;;;0.70;;
673;SDS011;319;48.764;9.174;2023-06-19T08:15:12;0.70;;;0.70;;
673;SDS011;319;48.764;9.174;2023-06-19T08:17:39;0.68;;;0.68;;
673;SDS011;319;48.764;9.174;2023-06-19T08:20:07;0.60;;;0.60;;
673;SDS011;319;48.764;9.174;2023-06-19T08:22:34;0.70;;;0.70;;
673;SDS011;319;48.764;9.174;2023-06-19T08:25:01;0.70;;;0.70;;
673;SDS011;319;48.764;9.174;2023-06-19T08:27:29;0.70;;;0.70;;
673;SDS011;319;48.764;9.174;2023-06-19T08:29:55;0.70;;;0.70;;
673;SDS011;319;48.764;9.174;2023-06-19T08:32:24;0.70;;;0.70;;
673;SDS011;319;48.764;9.174;2023-06-19T08:34:51;0.80;;;0.80;;
673;SDS011;319;48.764;9.174;2023-06-19T08:37:18;0.70;;;0.70;;
673;SDS011;319;48.764;9.174;2023-06-19T08:39:45;0.60;;;0.60;;
673;SDS011;319;48.764;9.174;2023-06-19T08:42:12;0.70;;;0.70;;
673;SDS011;319;48.764;9.174;2023-06-19T08:44:39;0.70;;;0.70;;
673;SDS011;319;48.764;9.174;2023-06-19T08:47:06;0.70;;;0.70;;
673;SDS011;319;48.764;9.174;2023-06-19T08:49:36;0.70;;;0.70;;
673;SDS011;319;48.764;9.174;2023-06-19T08:52:03;0.70;;;0.70;;
673;SDS011;319;48.764;9.174;2023-06-19T08:54:31;0.70;;;0.70;;
673;SDS011;319;48.764;9.174;2023-06-19T08:56:59;0.70;;;0.70;;
673;SDS011;319;48.764;9.174;2023-06-19T08:59:27;0.70;;;0.70;;
673;SDS011;319;48.764;9.174;2023-06-19T09:01:54;0.60;;;0.60;;
673;SDS011;319;48.764;9.174;2023-06-19T09:04:22;0.70;;;0.70;;
673;SDS011;319;48.764;9.174;2023-06-19T09:06:53;0.70;;;0.70;;
673;SDS011;319;48.764;9.174;2023-06-19T09:09:22;0.77;;;0.77;;
673;SDS011;319;48.764;9.174;2023-06-19T09:11:57;0.70;;;0.70;;
673;SDS011;319;48.764;9.174;2023-06-19T09:14:30;0.70;;;0.70;;
673;SDS011;319;48.764;9.174;2023-06-19T09:16:59;0.70;;;0.70;;
673;SDS011;319;48.764;9.174;2023-06-19T09:19:27;0.70;;;0.70;;
673;SDS011;319;48.764;9.174;2023-06-19T09:22:00;0.70;;;0.70;;
673;SDS011;319;48.764;9.174;2023-06-19T09:24:34;0.70;;;0.70;;
673;SDS011;319;48.764;9.174;2023-06-19T09:27:05;0.70;;;0.70;;
673;SDS011;319;48.764;9.174;2023-06-19T09:29:35;0.60;;;0.60;;
673;SDS011;319;48.764;9.174;2023-06-19T09:32:13;0.70;;;0.70;;
673;SDS011;319;48.764;9.174;2023-06-19T09:34:41;0.80;;;0.80;;
673;SDS011;319;48.764;9.174;2023-06-19T09:37:09;0.75;;;0.75;;
673;SDS011;319;48.764;9.174;2023-06-19T09:39:37;0.80;;;0.80;;
673;SDS011;319;48.764;9.174;2023-06-19T09:42:05;0.70;;;0.70;;
673;SDS011;319;48.764;9.174;2023-06-19T09:44:36;0.60;;;0.60;;
673;SDS011;319;48.764;9.174;2023-06-19T09:47:18;0.70;;;0.70;;
673;SDS011;319;48.764;9.174;2023-06-19T09:49:54;0.60;;;0.60;;
673;SDS011;319;48.764;9.174;2023-06-19T09:52:23;0.70;;;0.70;;
673;SDS011;319;48.764;9.174;2023-06-19T09:54:51;0.70;;;0.70;;
673;SDS011;319;48.764;9.174;2023-06-19T09:57:19;0.60;;;0.60;;
673;SDS011;319;48.764;9.174;2023-06-19T09:59:50;0.70;;;0.70;;
673;SDS011;319;48.764;9.174;2023-06-19T10:02:21;0.70;;;0.70;;
673;SDS011;319;48.764;9.174;2023-06-19T10:04:50;0.70;;;0.70;;
673;SDS011;319;48.764;9.174;2023-06-19T10:07:18;0.70;;;0.70;;
673;SDS011;319;48.764;9.174;2023-06-19T10:09:57;0.70;;;0.70;;
673;SDS011;319;48.764;9.174;2023-06-19T10:12:37;0.70;;;0.70;;
673;SDS011;319;48.764;9.174;2023-06-19T10:15:08;0.70;;;0.70;;
673;SDS011;319;48.764;9.174;2023-06-19T10:17:37;0.70;;;0.70;;
673;SDS011;319;48.764;9.174;2023-06-19T10:20:04;0.80;;;0.80;;
673;SDS011;319;48.764;9.174;2023-06-19T10:22:39;0.77;;;0.77;;
673;SDS011;319;48.764;9.174;2023-06-19T10:25:24;0.70;;;0.70;;
673;SDS011;319;48.764;9.174;2023-06-19T10:27:54;0.70;;;0.70;;
673;SDS011;319;48.764;9.174;2023-06-19T10:30:20;0.70;;;0.70;;
673;SDS011;319;48.764;9.174;2023-06-19T10:32:48;0.80;;;0.80;;
673;SDS011;319;48.764;9.174;2023-06-19T10:35:15;0.70;;;0.70;;
673;SDS011;319;48.764;9.174;2023-06-19T10:37:46;0.70;;;0.70;;
673;SDS011;319;48.764;9.174;2023-06-19T10:40:14;0.70;;;0.70;;
673;SDS011;319;48.764;9.174;2023-06-19T10:42:49;1.17;;;1.17;;
673;SDS011;319;48.764;9.174;2023-06-19T10:45:16;0.70;;;0.70;;
673;SDS011;319;48.764;9.174;2023-06-19T10:47:43;0.70;;;0.70;;
673;SDS011;319;48.764;9.174;2023-06-19T10:50:11;0.70;;;0.70;;
673;SDS011;319;48.764;9.174;2023-06-19T10:52:42;0.70;;;0.70;;
673;SDS011;319;48.764;9.174;2023-06-19T10:55:10;0.60;;;0.60;;
673;SDS011;319;48.764;9.174;2023-06-19T10:57:38;0.80;;;0.80;;
673;SDS011;319;48.764;9.174;2023-06-19T11:00:07;0.70;;;0.70;;
673;SDS011;319;48.764;9.174;2023-06-19T11:02:38;0.70;;;0.70;;
673;SDS011;319;48.764;9.174;2023-06-19T11:05:08;0.70;;;0.70;;
673;SDS011;319;48.764;9.174;2023-06-19T11:07:35;0.70;;;0.70;;
673;SDS011;319;48.764;9.174;2023-06-19T11:10:03;0.70;;;0.70;;
673;SDS011;319;48.764;9.174;2023-06-19T11:12:31;0.80;;;0.80;;
673;SDS011;319;48.764;9.174;2023-06-19T11:14:58;0.70;;;0.70;;
673;SDS011;319;48.764;9.174;2023-06-19T11:17:26;0.90;;;0.90;;
673;SDS011;319;48.764;9.174;2023-06-19T11:19:56;0.70;;;0.70;;
673;SDS011;319;48.764;9.174;2023-06-19T11:22:33;0.70;;;0.70;;
673;SDS011;319;48.764;9.174;2023-06-19T11:25:02;0.70;;;0.70;;
673;SDS011;319;48.764;9.174;2023-06-19T11:27:30;0.70;;;0.70;;
673;SDS011;319;48.764;9.174;2023-06-19T11:29:57;0.70;;;0.70;;
673;SDS011;319;48.764;9.174;2023-06-19T11:32:31;0.70;;;0.70;;
673;SDS011;319;48.764;9.174;2023-06-19T11:35:04;0.70;;;0.70;;
673;SDS011;319;48.764;9.174;2023-06-19T11:37:33;0.70;;;0.70;;
673;SDS011;319;48.764;9.174;2023-06-19T11:40:00;0.70;;;0.70;;
673;SDS011;319;48.764;9.174;2023-06-19T11:42:29;0.70;;;0.70;;
673;SDS011;319;48.764;9.174;2023-06-19T11:44:59;0.70;;;0.70;;
673;SDS011;319;48.764;9.174;2023-06-19T11:47:32;0.70;;;0.70;;
673;SDS011;319;48.764;9.174;2023-06-19T11:50:03;0.80;;;0.80;;
673;SDS011;319;48.764;9.174;2023-06-19T11:52:30;0.80;;;0.80;;
673;SDS011;319;48.764;9.174;2023-06-19T11:54:57;0.70;;;0.70;;
673;SDS011;319;48.764;9.174;2023-06-19T11:57:24;0.70;;;0.70;;
673;SDS011;319;48.764;9.174;2023-06-19T11:59:53;0.80;;;0.80;;
673;SDS011;319;48.764;9.174;2023-06-19T12:02:20;0.70;;;0.70;;
673;SDS011;319;48.764;9.174;2023-06-19T12:04:48;0.70;;;0.70;;
673;SDS011;319;48.764;9.174;2023-06-19T12:07:15;0.70;;;0.70;;
673;SDS011;319;48.764;9.174;2023-06-19T12:09:42;0.70;;;0.70;;
673;SDS011;319;48.764;9.174;2023-06-19T12:12:09;0.70;;;0.70;;
673;SDS011;319;48.764;9.174;2023-06-19T12:14:36;0.80;;;0.80;;
673;SDS011;319;48.764;9.174;2023-06-19T12:17:04;0.70;;;0.70;;
673;SDS011;319;48.764;9.174;2023-06-19T12:19:32;0.70;;;0.70;;
673;SDS011;319;48.764;9.174;2023-06-19T12:22:01;0.70;;;0.70;;
673;SDS011;319;48.764;9.174;2023-06-19T12:24:28;0.70;;;0.70;;
673;SDS011;319;48.764;9.174;2023-06-19T12:26:54;0.80;;;0.80;;
673;SDS011;319;48.764;9.174;2023-06-19T12:29:21;0.70;;;0.70;;
673;SDS011;319;48.764;9.174;2023-06-19T12:31:49;0.70;;;0.70;;
673;SDS011;319;48.764;9.174;2023-06-19T12:34:15;0.70;;;0.70;;
673;SDS011;319;48.764;9.174;2023-06-19T12:36:43;0.70;;;0.70;;
673;SDS011;319;48.764;9.174;2023-06-19T12:39:11;0.70;;;0.70;;
673;SDS011;319;48.764;9.174;2023-06-19T12:41:41;0.60;;;0.60;;
673;SDS011;319;48.764;9.174;2023-06-19T12:44:08;0.70;;;0.70;;
673;SDS011;319;48.764;9.174;2023-06-19T12:46:35;0.70;;;0.70;;
673;SDS011;319;48.764;9.174;2023-06-19T12:49:02;0.80;;;0.80;;
673;SDS011;319;48.764;9.174;2023-06-19T12:51:29;0.80;;;0.80;;
673;SDS011;319;48.764;9.174;2023-06-19T12:53:56;0.70;;;0.70;;
673;SDS011;319;48.764;9.174;2023-06-19T12:56:24;0.70;;;0.70;;
673;SDS011;319;48.764;9.174;2023-06-19T12:58:51;0.70;;;0.70;;
673;SDS011;319;48.764;9.174;2023-06-19T13:01:18;0.70;;;0.70;;
673;SDS011;319;48.764;9.174;2023-06-19T13:03:45;0.63;;;0.63;;
673;SDS011;319;48.764;9.174;2023-06-19T13:06:12;0.70;;;0.70;;
673;SDS011;319;48.764;9.174;2023-06-19T13:08:39;0.90;;;0.90;;
673;SDS011;319;48.764;9.174;2023-06-19T13:11:06;0.70;;;0.70;;
673;SDS011;319;48.764;9.174;2023-06-19T13:13:34;0.70;;;0.70;;
673;SDS011;319;48.764;9.174;2023-06-19T13:16:01;0.60;;;0.60;;
673;SDS011;319;48.764;9.174;2023-06-19T13:18:28;0.70;;;0.70;;
673;SDS011;319;48.764;9.174;2023-06-19T13:20:55;0.70;;;0.70;;
673;SDS011;319;48.764;9.174;2023-06-19T13:23:22;0.70;;;0.70;;
673;SDS011;319;48.764;9.174;2023-06-19T13:25:49;0.70;;;0.70;;
673;SDS011;319;48.764;9.174;2023-06-19T13:28:24;0.70;;;0.70;;
673;SDS011;319;48.764;9.174;2023-06-19T13:30:52;0.70;;;0.70;;
673;SDS011;319;48.764;9.174;2023-06-19T13:33:19;0.70;;;0.70;;
673;SDS011;319;48.764;9.174;2023-06-19T13:35:46;0.70;;;0.70;;
673;SDS011;319;48.764;9.174;2023-06-19T13:38:13;0.70;;;0.70;;
673;SDS011;319;48.764;9.174;2023-06-19T13:40:40;0.70;;;0.70;;
673;SDS011;319;48.764;9.174;2023-06-19T13:43:08;0.70;;;0.70;;
673;SDS011;319;48.764;9.174;2023-06-19T13:45:35;0.70;;;0.70;;
673;SDS011;319;48.764;9.174;2023-06-19T13:48:05;0.70;;;0.70;;
673;SDS011;319;48.764;9.174;2023-06-19T13:50:32;0.70;;;0.70;;
673;SDS011;319;48.764;9.174;2023-06-19T13:53:00;0.80;;;0.80;;
673;SDS011;319;48.764;9.174;2023-06-19T13:55:27;0.70;;;0.70;;
673;SDS011;319;48.764;9.174;2023-06-19T13:57:54;0.70;;;0.70;;
673;SDS011;319;48.764;9.174;2023-06-19T14:00:22;0.70;;;0.70;;
673;SDS011;319;48.764;9.174;2023-06-19T14:02:51;0.60;;;0.60;;
673;SDS011;319;48.764;9.174;2023-06-19T14:05:20;0.70;;;0.70;;
673;SDS011;319;48.764;9.174;2023-06-19T14:07:47;0.70;;;0.70;;
673;SDS011;319;48.764;9.174;2023-06-19T14:10:14;0.70;;;0.70;;
673;SDS011;319;48.764;9.174;2023-06-19T14:12:43;0.80;;;0.80;;
673;SDS011;319;48.764;9.174;2023-06-19T14:15:10;0.70;;;0.70;;
673;SDS011;319;48.764;9.174;2023-06-19T14:17:37;0.60;;;0.60;;
673;SDS011;319;48.764;9.174;2023-06-19T14:20:06;0.70;;;0.70;;
673;SDS011;319;48.764;9.174;2023-06-19T14:22:35;0.70;;;0.70;;
673;SDS011;319;48.764;9.174;2023-06-19T14:25:05;0.70;;;0.70;;
673;SDS011;319;48.764;9.174;2023-06-19T14:27:32;0.70;;;0.70;;
673;SDS011;319;48.764;9.174;2023-06-19T14:30:02;0.60;;;0.60;;
673;SDS011;319;48.764;9.174;2023-06-19T14:32:30;0.70;;;0.70;;
673;SDS011;319;48.764;9.174;2023-06-19T14:34:57;0.70;;;0.70;;
673;SDS011;319;48.764;9.174;2023-06-19T14:37:24;0.60;;;0.60;;
673;SDS011;319;48.764;9.174;2023-06-19T14:39:52;0.70;;;0.70;;
673;SDS011;319;48.764;9.174;2023-06-19T14:42:20;0.70;;;0.70;;
673;SDS011;319;48.764;9.174;2023-06-19T14:44:47;0.70;;;0.70;;
673;SDS011;319;48.764;9.174;2023-06-19T14:47:13;0.70;;;0.70;;
673;SDS011;319;48.764;9.174;2023-06-19T14:49:40;0.70;;;0.70;;
673;SDS011;319;48.764;9.174;2023-06-19T14:52:07;0.70;;;0.70;;
673;SDS011;319;48.764;9.174;2023-06-19T14:54:34;0.70;;;0.70;;
673;SDS011;319;48.764;9.174;2023-06-19T14:57:03;0.70;;;0.70;;
673;SDS011;319;48.764;9.174;2023-06-19T14:59:30;0.60;;;0.60;;
673;SDS011;319;48.764;9.174;2023-06-19T15:01:57;0.80;;;0.80;;
673;SDS011;319;48.764;9.174;2023-06-19T15:04:24;0.80;;;0.80;;
673;SDS011;319;48.764;9.174;2023-06-19T15:06:51;0.60;;;0.60;;
673;SDS011;319;48.764;9.174;2023-06-19T15:09:18;0.60;;;0.60;;
673;SDS011;319;48.764;9.174;2023-06-19T15:11:45;0.70;;;0.70;;
673;SDS011;319;48.764;9.174;2023-06-19T15:14:13;0.60;;;0.60;;
673;SDS011;319;48.764;9.174;2023-06-19T15:16:42;0.70;;;0.70;;
673;SDS011;319;48.764;9.174;2023-06-19T15:19:09;0.70;;;0.70;;
673;SDS011;319;48.764;9.174;2023-06-19T15:21:36;0.70;;;0.70;;
673;SDS011;319;48.764;9.174;2023-06-19T15:24:03;0.70;;;0.70;;
673;SDS011;319;48.764;9.174;2023-06-19T15:26:30;0.70;;;0.70;;
673;SDS011;319;48.764;9.174;2023-06-19T15:28:57;0.70;;;0.70;;
673;SDS011;319;48.764;9.174;2023-06-19T15:31:25;0.70;;;0.70;;
673;SDS011;319;48.764;9.174;2023-06-19T15:33:52;0.70;;;0.70;;
673;SDS011;319;48.764;9.174;2023-06-19T15:36:19;0.70;;;0.70;;
673;SDS011;319;48.764;9.174;2023-06-19T15:38:46;0.70;;;0.70;;
673;SDS011;319;48.764;9.174;2023-06-19T15:41:13;0.70;;;0.70;;
673;SDS011;319;48.764;9.174;2023-06-19T15:43:40;0.60;;;0.60;;
673;SDS011;319;48.764;9.174;2023-06-19T15:46:08;0.70;;;0.70;;
673;SDS011;319;48.764;9.174;2023-06-19T15:48:36;0.60;;;0.60;;
673;SDS011;319;48.764;9.174;2023-06-19T15:51:03;0.67;;;0.67;;